Create Custom Reports and Graphics: Custom Report

Latest Observations

Map

15 Minute Data

Latest Observation

39 Stations

15 Minute Data | America/Los_Angeles
as of 6/25/22 4:05 AM PDT
Station Date Time Temp (°F) RH (%) Dew Pt (°F) Wind Dir (°) Wind Spd (mph) Wind Gust (mph) Solar Rad (W/m2) Latest Rain (In) Daily Rain (In) Daily Max Temp (°F) Daily Min Temp (°F) Daily Max Wind (mph) Daily ETo (in) Daily Leaf Wet Hrs (hrs)
Colony 1 6/25/22 0400 56.5   4.2 79   8 50.0   1.0 NE | 42 0.1   0.7 1.0   1.4 0   0 0.00 0.00 62.0   3.6 56.2   3.7 2.7   0.4 0.000   0.000 -
Colony 2 6/25/22 0400 57.2   4.2 76   7 49.8   1.6 NE | 55 1.2   0.9 1.8   0.0 0   0 0.00 0.00 62.6   3.4 56.3   4.5 3.3   3.1 0.000   0.000 -
5 Wells 6/25/22 0400 56.5   2.3 70   1 47.0   2.5 N | 0 0.0   1.8 0.0   3.6 0   0 0.00 0.00 63.2   2.0 56.1   2.7 4.4   0.3 0.000   0.000 -
Simmerhorn 6/25/22 0400 60.3   1.9 62   18 47.4   5.1 - - - - - - 67.1   2.6 57.5   0.7 - - -
Galt-East 6/25/22 0400 57.2   2.7 80   4 51.0   1.1 NNW | 335 1.3   1.3 3.8   3.4 0   0 0.00 0.00 65.0   2.6 55.6   3.8 3.8   0.4 0.000   0.000 -
Borden Hills 6/25/22 0400 60.8   2.1 59   1 46.4   2.5 NE | 47 4.2   0.3 5.6   0.9 0   0 0.00 0.00 70.1   0.4 60.3   2.0 5.8   0.0 0.001   0.000 -
Sierra Loma-L27 6/25/22 0400 62.6   0.7 56   9 46.5   4.7 N | 11 1.3   0.3 4.3   0.6 - 0.00 0.00 67.7   1.9 60.7   1.5 4.3   0.6 - -
Lockeford 6/25/22 0400 57.2   5.6 82   18 51.9   1.3 NNW | 340 0.4   0.9 2.7   1.7 0   0 0.00 0.00 63.8   4.2 57.0   3.8 3.4   1.0 0.000   0.000 0.0   0.0
Lone Oak-L28 6/25/22 0400 53.6   3.0 93   11 51.8   0.5 WSW | 244 0.3   0.1 1.8   1.4 - 0.00 0.00 57.0   3.3 53.4   2.6 3.2   0.0 - -
Kost Rd 6/25/22 0400 56.3   4.4 84   13 51.7   0.2 N | 349 0.1   0.4 1.4   0.1 0   0 0.00 0.00 64.2   3.4 55.7   4.6 3.2   1.4 0.000   0.000 -
Thornton 6/25/22 0400 54.7   2.8 79   6 48.3   0.6 N | 0 0.0   0.0 0.0   1.7 0   0 0.00 0.00 61.6   4.0 54.4   2.9 3.8   0.0 0.000   0.000 0.0   0.0
Lodi (LangeTwins) 6/25/22 0400 58.1   8.9 83   30 53.1   3.8 N | 0 0.0   0.7 0.0   3.4 0   0 0.00 0.00 66.3   2.4 57.4   4.3 4.1   2.0 0.000   0.000 0.0   0.0
Gilbeau Ranch 6/25/22 0400 60.3   0.6 67   8 49.3   2.4 NE | 55 0.8   0.1 1.9   0.0 0   0 0.00 0.00 62.8   3.0 58.5   0.7 2.9   0.6 0.000   0.000 -
Galt West 6/25/22 0400 54.6   5.3 86   15 50.3   0.1 NE | 40 0.3   1.2 1.4   1.4 0   0 0.00 0.00 61.6   7.0 54.2   5.2 2.8   1.1 0.000   0.000 -
Valley Oak 6/25/22 0400 53.8   4.3 88   16 50.5   1.1 NE | 41 0.1   0.0 1.4   0.4 0   0 0.00 0.00 61.2   5.0 53.3   4.5 3.7   0.8 0.000   0.000 -
Guard Rd (Lodi WSW) 6/25/22 0400 54.4   1.0 92   1 52.2   0.6 W | 263 1.9   1.0 3.0   0.8 0   0 0.00 0.00 60.0   1.4 52.8   1.7 3.2   0.3 0.000   0.000 0.0   0.0
Linden 6/25/22 0400 54.4   2.9 93   6 52.6   0.9 NNE | 26 0.4   0.0 1.8   0.4 - 0.00 0.00 57.8   3.5 54.2   2.8 3.0   0.2 - 3.0   3.0
DeVries Road-North 6/25/22 0400 55.1   8.8 87   24 51.4   0.2 ESE | 116 0.1   1.1 1.8   0.7 0   0 0.00 0.00 60.7   5.1 54.3   4.0 3.2   2.0 0.000   0.000 -
Acampo 6/25/22 0400 55.9   7.2 82   27 50.6   3.8 N | 0 0.0   0.0 0.0   0.0 0   0 - 0.00 62.6   2.8 55.6   4.4 0.0   0.7 0.000   0.000 0.9   0.9
Acampo (Woodbridge) 6/25/22 0400 58.8   8.8 77   31 51.6   5.4 WSW | 239 0.3   2.3 3.5   2.4 0   0 0.00 0.00 66.3   3.4 57.9   2.9 6.0   0.9 0.000   0.001 -
Lodi West 6/25/22 0400 58.9   1.7 82   19 53.4   5.3 ESE | 102 0.1   0.6 2.0   0.7 0   0 0.00 0.00 66.4   4.5 58.3   1.9 3.1   0.4 0.000   0.000 3.0   3.0
Teresi-Alpine Rd (East Lodi) 6/25/22 0400 57.4   11.5 83   38 52.2   5.9 SE | 124 0.8   2.5 2.5   2.6 0   0 0.00 0.00 62.5   7.2 57.2   7.7 3.6   2.4 0.000   0.001 -
Victor - N (Katusha) 6/25/22 0400 57.1   10.3 78   35 50.5   6.1 NW | 326 0.1   0.8 1.7   1.0 - 0.00 0.00 63.5   4.8 56.4   5.9 - - -
Live Oak 6/25/22 0400 60.0   1.3 77   2 52.9   2.1 NNE | 24 1.0   0.6 1.8   0.4 0   0 0.00 0.00 62.0   3.9 57.3   1.1 5.7   3.1 0.000   0.000 -
Sheldon 6/25/22 0400 53.5   4.3 85   7 49.2   1.9 N | 0 0.0   1.1 0.0   3.1 0   0 0.00 0.00 61.4   3.7 53.4   4.4 0.0   5.8 0.000   0.000 0.0   0.0
Sloughhouse 6/25/22 0400 52.2   2.4 87   1 48.6   2.2 N | 0 0.0   0.0 0.0   0.0 0   0 0.00 0.00 57.1   3.2 51.9   2.4 3.8   0.3 0.000   0.000 -
Utter - Wilson 6/25/22 0400 59.7   3.2 72   6 50.7   0.9 SSE | 168 2.6   0.3 6.3   2.4 0   0 0.00 0.00 63.8   4.3 59.4   2.7 6.3   0.9 0.000   0.001 -
Clarksburg 6/25/22 0400 59.2   2.2 62   3 46.4   3.4 S | 187 1.9   0.0 3.1   0.0 0   0 0.00 0.00 63.9   4.1 58.1   2.3 5.8   1.1 0.001   0.001 -
Clarksburg-3A2 6/25/22 0400 62.4   0.9 58   8 47.5   2.4 WSW | 256 3.7   1.6 6.4   2.5 0   0 0.00 0.00 65.3   5.8 60.7   0.2 8.2   0.4 0.001   0.000 -
Gorter - Wilson 6/25/22 0400 58.4   0.7 68   9 47.9   2.6 SSW | 211 1.2   0.1 3.6   0.3 0   0 0.00 0.00 61.5   8.2 57.1   0.8 5.2   0.8 0.000   0.000 -
Hood 6/25/22 0400 55.5   1.2 73   4 47.2   2.7 SW | 223 0.4   0.6 2.6   0.9 0   0 0.00 0.00 62.1   8.7 55.1   1.3 4.4   2.0 0.000   0.000 -
Courtland-C3 6/25/22 0400 57.4   6.4 81   19 51.7   1.0 NNW | 340 0.7   1.6 1.9   1.9 - 0.00 0.00 64.0   7.1 56.6   6.5 5.8   1.6 - -
Pacific Fruit 6/25/22 0400 55.7   6.6 83   16 50.6   0.5 NE | 41 0.7   2.6 1.8   3.9 0   0 0.00 0.00 63.9   7.4 55.4   4.7 6.6   1.8 0.000   0.001 -
Ryer Island South 6/25/22 0400 53.6   16.0 75   28 45.7   2.4 NNE | 25 0.3   2.6 1.2   5.3 0   0 0.00 0.00 70.3   3.7 53.2   16.3 8.2   2.9 0.001   0.004 0.0   0.0
Farmington (Mobley100) 6/25/22 0400 58.6   2.7 92   8 56.2   0.3 N | 0 0.0   0.1 0.0   1.8 - - - 62.2   2.0 58.4   2.4 0.7   1.1 - -
Collegeville 6/25/22 0400 59.3   1.1 91   6 56.7   0.7 N | 3 0.0   0.1 0.6   0.4 0   0 0.00 0.00 63.8   3.8 58.8   1.1 3.2   0.9 0.000   0.000 -
Oakdale North (28 Mile Rd) 6/25/22 0400 61.2   9.8 86   40 57.0   7.4 N | 0 0.0   0.4 0.0   3.1 - - - 69.7   3.7 61.1   7.5 2.7   1.5 - -
Escalon 6/25/22 0400 60.6   5.8 76   20 52.9   2.7 NNE | 19 0.4   0.5 2.3   0.4 - 0.00 0.00 65.4   3.7 60.4   2.0 2.5   0.5 - 0.0   0.0
Claussen 6/25/22 0400 64.4   3.4 66   21 52.9   4.5 NW | 322 3.6   3.5 5.7   4.2 0   0 0.00 0.00 74.0   4.3 61.6   0.9 10.5   6.8 0.002   0.002 -
Max     64.4 93 57.0 - 4.2 6.4 0 0.00 0.00 74.0 61.6 10.5 0.002 3.0
Avg     57.5 78 50.6 - 0.8 2.1 0 0.00 - - - - - -
Min     52.2 56 45.7 - 0.0 0.0 0 0.00 0.00 57.0 51.9 0.0 0.000 0.0

Latest Observations

Map

Hourly Data